Time;durP1;ratioP1;P1;durP2;ratioP2;P2;SDS_P1;SDS_P2;PMS_P1;PMS_P2;Temp;Humidity;BMP_temperature;BMP_pressure;BME280_temperature;BME280_humidity;BME280_pressure;Samples;Min_cycle;Max_cycle;Signal;HPM_P1;HPM_P2
2023/08/04 00:01:59;;;;;;;5.75;1.48;;;;;;;17.90;75.63;100010.88;4126771;28;20093;-63
2023/08/04 00:04:02;;;;;;;5.28;1.40;;;;;;;17.89;75.57;100003.88;4129226;28;20133;-63
2023/08/04 00:06:08;;;;;;;5.40;1.83;;;;;;;17.89;75.88;100007.34;4128292;28;20051;-63
2023/08/04 00:08:11;;;;;;;4.20;1.33;;;;;;;17.88;75.88;100005.63;4143873;28;20069;-63
2023/08/04 00:10:16;;;;;;;2.33;1.00;;;;;;;17.91;75.84;100012.59;4110094;28;20178;-63
2023/08/04 00:12:18;;;;;;;8.85;1.88;;;;;;;17.89;75.94;100009.97;4142724;28;20073;-63
2023/08/04 00:14:21;;;;;;;3.80;1.33;;;;;;;17.88;76.31;100000.34;4146580;28;20144;-63
2023/08/04 00:16:24;;;;;;;4.03;1.73;;;;;;;17.89;75.95;100009.97;4141306;28;20529;-63
2023/08/04 00:18:27;;;;;;;3.15;1.25;;;;;;;17.89;75.95;99999.47;4127188;28;20501;-63
2023/08/04 00:20:30;;;;;;;4.25;1.10;;;;;;;17.91;75.99;99994.19;4145220;28;20398;-63
2023/08/04 00:22:33;;;;;;;4.15;1.33;;;;;;;17.89;75.80;99999.47;4143656;28;20038;-63
2023/08/04 00:24:35;;;;;;;8.07;1.55;;;;;;;17.92;75.70;100004.69;4144398;28;20038;-63
2023/08/04 00:26:39;;;;;;;5.05;1.33;;;;;;;17.95;76.13;100009.00;4147028;28;20037;-63
2023/08/04 00:28:41;;;;;;;4.10;1.30;;;;;;;17.99;75.97;100008.03;4127628;28;20133;-63
2023/08/04 00:30:44;;;;;;;5.15;1.45;;;;;;;17.98;76.37;100000.19;4128812;28;20137;-63
2023/08/04 00:32:47;;;;;;;2.72;1.20;;;;;;;17.99;76.38;100007.16;4111099;28;20148;-63
2023/08/04 00:34:50;;;;;;;4.20;1.52;;;;;;;18.00;76.21;100003.63;4126409;28;20039;-63
2023/08/04 00:36:53;;;;;;;3.70;1.30;;;;;;;17.99;76.73;99997.53;4143204;28;20120;-63
2023/08/04 00:38:56;;;;;;;3.47;1.55;;;;;;;17.99;76.70;99999.28;4143045;28;20521;-63
2023/08/04 00:40:59;;;;;;;4.00;1.20;;;;;;;17.95;76.46;99994.09;4126269;28;20528;-64
2023/08/04 00:43:03;;;;;;;6.50;1.40;;;;;;;17.94;76.19;100002.00;4145129;28;20042;-63
2023/08/04 00:45:09;;;;;;;6.40;1.58;;;;;;;17.93;76.46;99995.91;4140920;28;20038;-63
2023/08/04 00:47:12;;;;;;;1.67;1.02;;;;;;;17.96;76.85;100000.22;4127671;28;20504;-63
2023/08/04 00:49:16;;;;;;;2.72;1.30;;;;;;;17.91;76.92;99997.69;4126163;28;20038;-63
2023/08/04 00:51:20;;;;;;;6.57;1.50;;;;;;;17.91;76.68;99999.47;4141907;28;20065;-63
2023/08/04 00:53:23;;;;;;;4.50;1.30;;;;;;;17.89;76.62;100001.25;4127306;28;20054;-63
2023/08/04 00:55:27;;;;;;;3.75;1.35;;;;;;;17.85;76.80;100000.44;4146475;28;20030;-63
2023/08/04 00:57:30;;;;;;;4.78;1.30;;;;;;;17.83;77.06;100001.34;4128055;28;20400;-63
2023/08/04 00:59:34;;;;;;;3.45;1.23;;;;;;;17.82;76.97;99997.88;4127406;28;20432;-63
2023/08/04 01:01:38;;;;;;;4.07;1.73;;;;;;;17.80;77.37;100000.53;4114170;28;20520;-63
2023/08/04 01:03:42;;;;;;;5.00;1.70;;;;;;;17.84;77.78;100005.72;4142164;28;20037;-64
2023/08/04 01:05:50;;;;;;;3.70;1.30;;;;;;;17.83;77.07;99999.63;4126445;28;20496;-64
2023/08/04 01:07:57;;;;;;;4.28;1.30;;;;;;;17.82;77.34;99997.88;4126100;28;20121;-63
2023/08/04 01:10:11;;;;;;;3.70;1.55;;;;;;;17.86;77.25;100003.91;4147810;28;20042;-63
2023/08/04 01:12:18;;;;;;;3.15;1.45;;;;;;;17.84;77.33;100001.31;4127177;28;20101;-63
2023/08/04 01:14:22;;;;;;;5.90;1.40;;;;;;;17.83;77.22;99998.72;4130493;28;20046;-63
2023/08/04 01:16:27;;;;;;;4.05;1.27;;;;;;;17.81;77.28;100001.41;4130060;28;20045;-63
2023/08/04 01:18:30;;;;;;;6.03;1.50;;;;;;;17.78;77.23;99999.72;4127099;28;20038;-63
2023/08/04 01:20:31;;;;;;;3.30;1.30;;;;;;;17.72;77.62;100005.09;4143109;28;20038;-63
2023/08/04 01:22:36;;;;;;;3.22;1.20;;;;;;;17.66;77.47;99994.72;4128207;28;20407;-63
2023/08/04 01:24:39;;;;;;;2.67;1.23;;;;;;;17.69;77.67;99991.19;4146433;28;20038;-63
2023/08/04 01:26:45;;;;;;;3.72;1.23;;;;;;;17.71;77.06;99990.25;4130212;28;20520;-63
2023/08/04 01:28:49;;;;;;;4.68;1.38;;;;;;;17.67;77.53;99988.59;4146531;28;20038;-63
2023/08/04 01:30:57;;;;;;;3.45;1.15;;;;;;;17.62;77.46;99993.94;4146123;28;20413;-63
2023/08/04 01:33:00;;;;;;;3.45;1.10;;;;;;;17.62;77.27;99990.44;4129727;28;20095;-63
2023/08/04 01:35:05;;;;;;;6.35;1.40;;;;;;;17.65;77.29;99995.63;4146331;28;20049;-63
2023/08/04 01:37:08;;;;;;;4.43;2.15;;;;;;;17.69;77.35;99996.44;4146282;28;20160;-63
2023/08/04 01:39:13;;;;;;;3.60;1.17;;;;;;;17.66;77.19;99996.50;4130957;28;20088;-63
2023/08/04 01:41:16;;;;;;;;;;;;;;;17.57;77.64;100001.06;4147778;28;21762;-63
2023/08/04 01:43:20;;;;;;;5.25;1.70;;;;;;;17.60;77.31;99997.50;4145817;28;19949;-63
2023/08/04 01:45:22;;;;;;;3.72;1.50;;;;;;;17.60;77.33;100000.13;4147230;28;20445;-63
2023/08/04 01:47:25;;;;;;;5.05;1.60;;;;;;;17.61;77.39;99992.22;4144353;28;20117;-63
2023/08/04 01:49:28;;;;;;;3.30;1.27;;;;;;;17.62;77.54;100004.47;4147203;28;20482;-63
2023/08/04 01:51:31;;;;;;;2.63;1.25;;;;;;;17.61;77.58;99994.84;4147159;28;20491;-63
2023/08/04 01:53:34;;;;;;;3.53;1.38;;;;;;;17.58;77.74;99996.66;4130675;28;20049;-64
2023/08/04 01:55:38;;;;;;;4.47;1.60;;;;;;;17.60;77.38;99994.88;4146249;28;20096;-63
2023/08/04 01:57:41;;;;;;;2.72;1.02;;;;;;;17.59;78.13;99994.00;4113523;28;20077;-64
2023/08/04 01:59:44;;;;;;;3.47;1.27;;;;;;;17.63;77.87;100000.06;4129600;28;20062;-63
2023/08/04 02:01:47;;;;;;;6.95;1.85;;;;;;;17.63;77.76;99997.44;4126981;28;20065;-63
2023/08/04 02:03:50;;;;;;;2.67;1.50;;;;;;;17.63;77.87;99997.44;4128420;28;20052;-63
2023/08/04 02:05:53;;;;;;;4.90;1.50;;;;;;;17.65;77.32;99995.63;4130076;28;20037;-63
2023/08/04 02:07:56;;;;;;;3.85;1.40;;;;;;;17.66;77.38;100005.25;4139368;28;20141;-63
2023/08/04 02:10:03;;;;;;;2.83;1.10;;;;;;;17.66;77.53;99999.13;4141145;28;20037;-63
2023/08/04 02:12:09;;;;;;;2.65;1.20;;;;;;;17.67;78.21;100006.97;4127675;28;20508;-63
2023/08/04 02:14:12;;;;;;;6.07;1.38;;;;;;;17.70;77.66;100003.44;4126702;28;20155;-63
2023/08/04 02:16:15;;;;;;;2.42;1.15;;;;;;;17.67;78.07;100014.88;4159111;22;20100;-62
2023/08/04 02:18:18;;;;;;;3.25;1.13;;;;;;;17.68;78.18;100008.69;4161084;28;20068;-61
2023/08/04 02:20:21;;;;;;;3.15;1.50;;;;;;;17.69;78.08;100006.94;4159516;28;20044;-60
2023/08/04 02:22:25;;;;;;;7.28;1.60;;;;;;;17.71;77.52;100000.75;4159236;28;20043;-60
2023/08/04 02:24:28;;;;;;;8.20;2.10;;;;;;;17.69;77.60;100005.16;4160040;28;20132;-60
2023/08/04 02:26:30;;;;;;;3.25;1.20;;;;;;;17.60;78.06;100006.25;4158548;28;20069;-60
2023/08/04 02:28:34;;;;;;;5.45;1.23;;;;;;;17.67;77.72;100013.97;4161110;28;20128;-60
2023/08/04 02:30:37;;;;;;;6.80;1.52;;;;;;;17.66;77.94;100010.50;4177049;28;20514;-60
2023/08/04 02:32:39;;;;;;;4.75;1.33;;;;;;;17.61;77.58;100009.75;4161623;28;20124;-60
2023/08/04 02:34:42;;;;;;;2.30;1.40;;;;;;;17.61;77.65;100012.38;4161024;28;20450;-60
2023/08/04 02:36:45;;;;;;;1.52;1.20;;;;;;;17.59;77.93;100009.75;4144016;28;20116;-60
2023/08/04 02:38:48;;;;;;;6.65;1.65;;;;;;;17.58;77.78;100009.78;4176350;28;20095;-60
2023/08/04 02:40:50;;;;;;;6.47;1.60;;;;;;;17.55;77.93;100015.13;4158636;28;20103;-60
2023/08/04 02:42:52;;;;;;;3.47;1.10;;;;;;;17.49;77.82;100017.88;4161329;28;20045;-61
2023/08/04 02:44:57;;;;;;;2.33;1.10;;;;;;;17.52;77.84;100009.94;4161137;28;20462;-61
2023/08/04 02:47:00;;;;;;;3.38;1.30;;;;;;;17.47;77.80;100011.81;4156688;28;20053;-60
2023/08/04 02:49:03;;;;;;;5.13;1.60;;;;;;;17.51;77.96;100013.44;4162059;28;20497;-60
2023/08/04 02:51:09;;;;;;;3.80;1.63;;;;;;;17.51;78.10;100013.44;4160012;28;20049;-60
2023/08/04 02:53:14;;;;;;;4.38;1.50;;;;;;;17.53;77.64;100016.94;4161162;28;20045;-60
2023/08/04 02:55:17;;;;;;;4.68;1.52;;;;;;;17.51;78.07;100019.59;4160501;28;20065;-60
2023/08/04 02:57:20;;;;;;;2.85;1.30;;;;;;;17.52;78.09;100020.44;4158930;28;20129;-60
2023/08/04 02:59:23;;;;;;;3.20;1.13;;;;;;;17.53;77.87;100017.78;4162098;28;20038;-60
2023/08/04 03:01:28;;;;;;;3.28;1.10;;;;;;;17.54;78.01;100023.94;4160688;28;20426;-61
2023/08/04 03:03:31;;;;;;;4.28;1.48;;;;;;;17.59;77.41;100024.69;4159760;28;20430;-61
2023/08/04 03:05:35;;;;;;;4.43;1.70;;;;;;;17.59;77.55;100029.94;4160601;28;20037;-60
2023/08/04 03:07:38;;;;;;;3.97;1.40;;;;;;;17.56;77.76;100022.13;4161587;28;20136;-61
2023/08/04 03:09:41;;;;;;;3.50;1.35;;;;;;;17.56;77.84;100030.00;4159556;28;20087;-60
2023/08/04 03:11:44;;;;;;;2.47;1.50;;;;;;;17.59;77.92;100024.69;4160224;28;20045;-60
2023/08/04 03:13:48;;;;;;;6.20;1.40;;;;;;;17.48;78.04;100022.28;4161470;28;20407;-60
2023/08/04 03:15:56;;;;;;;3.03;1.23;;;;;;;17.50;77.79;100024.88;4144131;28;20309;-60
2023/08/04 03:18:00;;;;;;;6.07;1.67;;;;;;;17.53;77.87;100022.19;4159109;28;20049;-60
2023/08/04 03:20:03;;;;;;;4.78;1.50;;;;;;;17.54;77.73;100029.19;4160621;28;20136;-60
2023/08/04 03:22:06;;;;;;;7.78;1.88;;;;;;;17.53;77.69;100028.31;4157708;28;20148;-60
2023/08/04 03:24:08;;;;;;;3.85;1.30;;;;;;;17.56;77.31;100024.75;4160598;28;20076;-60
2023/08/04 03:26:11;;;;;;;3.65;1.60;;;;;;;17.48;77.58;100026.66;4161291;28;20041;-60
2023/08/04 03:28:14;;;;;;;3.35;1.30;;;;;;;17.45;77.53;100025.84;4158456;28;20041;-60
2023/08/04 03:30:17;;;;;;;4.10;1.52;;;;;;;17.40;77.67;100029.47;4160415;28;20411;-60
2023/08/04 03:32:20;;;;;;;3.90;1.40;;;;;;;17.31;77.90;100032.28;4158616;28;20041;-62
2023/08/04 03:34:23;;;;;;;3.03;1.20;;;;;;;17.32;78.66;100028.75;4159809;28;20065;-60
2023/08/04 03:36:26;;;;;;;4.55;1.40;;;;;;;17.35;77.96;100029.56;4159221;28;20052;-60
2023/08/04 03:38:29;;;;;;;4.10;1.52;;;;;;;17.40;77.56;100032.94;4158984;28;20128;-60
2023/08/04 03:40:32;;;;;;;2.80;1.40;;;;;;;17.41;77.54;100024.16;4160292;28;20076;-60
2023/08/04 03:42:35;;;;;;;3.70;1.20;;;;;;;17.42;77.53;100023.28;4155212;28;20041;-60
2023/08/04 03:44:38;;;;;;;3.42;1.35;;;;;;;17.41;78.03;100032.06;4160720;28;20073;-60
2023/08/04 03:46:41;;;;;;;7.57;1.40;;;;;;;17.44;77.95;100028.50;4160688;28;20272;-60
2023/08/04 03:48:44;;;;;;;9.07;1.52;;;;;;;17.47;78.07;100027.59;4160145;28;20037;-60
2023/08/04 03:50:47;;;;;;;3.15;1.17;;;;;;;17.49;77.84;100028.41;4159893;28;20049;-60
2023/08/04 03:52:50;;;;;;;6.60;1.80;;;;;;;17.45;77.77;100027.63;4160777;28;20033;-61
2023/08/04 03:54:52;;;;;;;3.88;1.55;;;;;;;17.45;77.84;100027.63;4155756;28;20042;-61
2023/08/04 03:56:55;;;;;;;3.95;1.10;;;;;;;17.43;78.06;100035.53;4157030;28;20128;-61
2023/08/04 03:58:57;;;;;;;5.03;1.75;;;;;;;17.41;78.29;100029.44;4157483;28;20133;-61
2023/08/04 04:01:00;;;;;;;4.55;1.50;;;;;;;17.40;77.97;100032.94;4156191;28;20041;-61
2023/08/04 04:03:04;;;;;;;3.53;1.00;;;;;;;17.39;77.81;100035.59;4158784;28;20041;-61
2023/08/04 04:05:08;;;;;;;4.15;1.50;;;;;;;17.37;78.05;100037.41;4155757;28;20053;-61
2023/08/04 04:07:11;;;;;;;3.03;1.60;;;;;;;17.38;78.07;100045.25;4159147;28;20056;-61
2023/08/04 04:09:15;;;;;;;3.55;1.27;;;;;;;17.34;78.27;100038.34;4158201;28;20053;-61
2023/08/04 04:11:18;;;;;;;7.13;1.50;;;;;;;17.33;77.99;100039.22;4141161;28;20049;-61
2023/08/04 04:13:21;;;;;;;4.85;1.38;;;;;;;17.34;77.86;100042.72;4158748;28;20124;-61
2023/08/04 04:15:24;;;;;;;2.70;1.02;;;;;;;17.50;78.44;100044.13;4157121;28;20048;-67
2023/08/04 04:17:28;;;;;;;2.17;1.10;;;;;;;17.80;78.01;100045.25;4153139;28;20042;-67
2023/08/04 04:19:30;;;;;;;4.90;1.30;;;;;;;18.07;77.09;100045.53;4158122;28;20038;-67
2023/08/04 04:21:33;;;;;;;2.75;1.13;;;;;;;18.33;75.99;100045.84;4158093;28;20037;-67
2023/08/04 04:23:37;;;;;;;3.63;1.60;;;;;;;18.46;75.56;100053.38;4155311;28;20041;-66
2023/08/04 04:25:40;;;;;;;7.70;1.38;;;;;;;18.55;74.51;100049.66;4157957;28;20120;-66
2023/08/04 04:27:43;;;;;;;4.15;1.20;;;;;;;18.64;74.35;100048.53;4154691;28;20043;-66
2023/08/04 04:29:45;;;;;;;2.72;1.50;;;;;;;18.68;74.07;100052.84;4156735;28;20583;-67
2023/08/04 04:31:48;;;;;;;6.50;1.90;;;;;;;18.75;73.61;100045.63;4156483;28;20143;-66
2023/08/04 04:33:51;;;;;;;4.83;1.70;;;;;;;18.79;73.39;100053.44;4156178;28;20128;-66
2023/08/04 04:35:54;;;;;;;4.93;1.85;;;;;;;18.80;72.94;100057.78;4158911;28;20316;-66
2023/08/04 04:37:57;;;;;;;5.40;1.60;;;;;;;18.79;73.09;100058.69;4153382;28;20037;-65
2023/08/04 04:40:01;;;;;;;4.72;2.17;;;;;;;18.83;73.19;100064.72;4160568;28;20069;-65
2023/08/04 04:42:05;;;;;;;7.78;1.90;;;;;;;18.80;72.87;100057.78;4155040;28;20072;-65
2023/08/04 04:44:08;;;;;;;6.00;2.20;;;;;;;18.84;72.69;100064.69;4153720;28;20412;-65
2023/08/04 04:46:11;;;;;;;4.60;1.73;;;;;;;18.83;72.76;100062.09;4155317;28;20069;-65
2023/08/04 04:48:14;;;;;;;5.38;1.80;;;;;;;18.91;72.56;100069.81;4158404;28;20045;-66
2023/08/04 04:50:17;;;;;;;3.83;1.70;;;;;;;18.94;72.31;100069.72;4158677;28;20037;-66
2023/08/04 04:52:30;;;;;;;5.93;2.25;;;;;;;18.96;71.81;100062.69;4159713;28;20052;-65
2023/08/04 04:54:33;;;;;;;4.85;1.65;;;;;;;18.98;72.24;100066.13;4155814;28;20449;-63
2023/08/04 04:56:37;;;;;;;6.72;2.13;;;;;;;19.03;71.83;100072.16;4162485;28;20033;-63
2023/08/04 04:58:40;;;;;;;;;;;;;;;18.98;71.92;100074.03;4152602;28;20033;-63
2023/08/04 05:00:43;;;;;;;4.90;2.50;;;;;;;19.00;72.19;100080.13;4162032;28;19921;-64
2023/08/04 05:02:46;;;;;;;5.93;3.80;;;;;;;19.00;71.81;100075.72;4155724;28;20073;-64
2023/08/04 05:04:49;;;;;;;6.32;3.65;;;;;;;18.98;71.57;100076.66;4146881;28;20034;-64
2023/08/04 05:06:52;;;;;;;5.50;2.58;;;;;;;18.97;71.87;100077.59;4149082;28;20044;-64
2023/08/04 05:08:55;;;;;;;4.05;2.85;;;;;;;18.99;72.02;100078.41;4161154;28;20525;-64
2023/08/04 05:10:58;;;;;;;8.02;2.78;;;;;;;18.99;71.47;100079.25;4152963;28;20048;-64
2023/08/04 05:13:02;;;;;;;11.35;3.55;;;;;;;19.00;71.44;100078.34;4170020;28;20048;-64
2023/08/04 05:15:06;;;;;;;6.65;3.65;;;;;;;19.00;71.73;100075.72;4145305;28;20034;-64
2023/08/04 05:17:12;;;;;;;8.52;4.10;;;;;;;18.99;71.68;100083.66;4159733;28;20045;-64
2023/08/04 05:19:15;;;;;;;6.22;2.67;;;;;;;18.97;71.72;100082.84;4161445;28;20120;-64
2023/08/04 05:21:18;;;;;;;6.78;3.10;;;;;;;18.98;71.70;100076.66;4154933;28;20037;-64
2023/08/04 05:23:23;;;;;;;7.60;3.17;;;;;;;18.97;71.87;100085.50;4152386;28;20093;-64
2023/08/04 05:25:26;;;;;;;8.75;4.07;;;;;;;18.96;71.53;100087.25;4158741;28;20124;-64
2023/08/04 05:27:28;;;;;;;5.63;3.30;;;;;;;18.95;71.73;100093.44;4158585;28;20128;-64
2023/08/04 05:29:34;;;;;;;9.55;5.70;;;;;;;18.88;72.28;100096.25;4156230;28;20048;-60
2023/08/04 05:31:37;;;;;;;10.05;6.03;;;;;;;18.64;72.50;100086.25;4162705;28;20049;-60
2023/08/04 05:33:40;;;;;;;12.20;8.68;;;;;;;18.46;73.62;100095.50;4158352;28;20029;-60
2023/08/04 05:35:47;;;;;;;12.73;7.03;;;;;;;18.35;74.01;100102.78;4148019;28;20069;-60
2023/08/04 05:37:51;;;;;;;21.27;8.63;;;;;;;18.26;74.62;100095.09;4148050;28;20034;-60
2023/08/04 05:39:54;;;;;;;13.88;8.27;;;;;;;18.18;75.48;100099.66;4153638;28;20120;-60
2023/08/04 05:41:57;;;;;;;10.07;7.20;;;;;;;18.13;75.55;100102.41;4146404;28;20066;-61
2023/08/04 05:43:59;;;;;;;10.60;6.07;;;;;;;18.08;75.85;100104.28;4148896;28;20483;-60
2023/08/04 05:46:04;;;;;;;6.80;3.45;;;;;;;18.03;75.97;100104.38;4151165;28;20100;-60
2023/08/04 05:48:07;;;;;;;4.72;2.75;;;;;;;18.02;76.23;100110.56;4160064;28;20132;-61
2023/08/04 05:50:11;;;;;;;9.38;3.25;;;;;;;17.99;76.22;100107.09;4160721;28;20111;-61
2023/08/04 05:52:13;;;;;;;6.28;2.45;;;;;;;17.98;76.19;100100.13;4161588;28;20519;-61
2023/08/04 05:54:16;;;;;;;6.10;2.30;;;;;;;17.98;76.55;100106.25;4162832;28;20136;-61
2023/08/04 05:56:19;;;;;;;4.35;2.40;;;;;;;17.96;76.34;100105.44;4164610;28;20510;-61
2023/08/04 05:58:22;;;;;;;5.80;2.83;;;;;;;17.96;76.56;100105.44;4163020;28;20065;-61
2023/08/04 06:00:25;;;;;;;5.15;2.10;;;;;;;17.92;76.74;100109.88;4154723;28;20048;-61
2023/08/04 06:02:29;;;;;;;7.05;2.33;;;;;;;17.87;76.96;100110.84;4151634;28;20069;-64
2023/08/04 06:04:32;;;;;;;7.18;3.00;;;;;;;17.87;77.15;100117.00;4151349;28;20037;-61
2023/08/04 06:06:35;;;;;;;6.18;2.28;;;;;;;17.93;77.12;100111.63;4154348;28;20046;-61
2023/08/04 06:08:38;;;;;;;6.50;1.98;;;;;;;17.94;77.14;100113.31;4164038;28;20041;-60
2023/08/04 06:10:41;;;;;;;7.18;2.35;;;;;;;17.97;77.51;100112.41;4159398;28;20508;-60
2023/08/04 06:12:44;;;;;;;3.95;2.08;;;;;;;17.99;77.50;100117.63;4160970;28;20094;-61
2023/08/04 06:14:47;;;;;;;5.57;2.58;;;;;;;17.94;77.63;100121.22;4155992;28;20069;-61
2023/08/04 06:16:50;;;;;;;6.22;2.58;;;;;;;17.92;77.39;100116.91;4136745;28;20453;-61
2023/08/04 06:18:54;;;;;;;3.58;2.22;;;;;;;17.93;77.77;100124.78;4163187;28;20072;-61
2023/08/04 06:20:56;;;;;;;15.02;5.38;;;;;;;17.95;77.68;100124.72;4164484;28;20103;-61
2023/08/04 06:22:59;;;;;;;6.68;3.42;;;;;;;17.97;77.81;100128.19;4164854;28;20129;-61
2023/08/04 06:25:02;;;;;;;6.45;3.05;;;;;;;17.97;78.06;100122.94;4155063;28;20065;-61
2023/08/04 06:27:05;;;;;;;4.32;2.20;;;;;;;18.02;77.94;100128.97;4163770;28;20042;-61
2023/08/04 06:29:08;;;;;;;6.43;2.33;;;;;;;18.05;77.62;100125.41;4162218;28;20116;-61
2023/08/04 06:31:11;;;;;;;4.38;1.80;;;;;;;17.98;77.44;100126.44;4163394;28;20438;-61
2023/08/04 06:33:14;;;;;;;4.85;2.47;;;;;;;18.02;77.08;100136.84;4163761;28;20041;-61
2023/08/04 06:35:19;;;;;;;4.13;2.05;;;;;;;18.03;76.14;100128.03;4160143;28;20507;-61
2023/08/04 06:37:21;;;;;;;4.60;2.33;;;;;;;18.03;75.82;100135.94;4156608;28;20042;-61
2023/08/04 06:39:23;;;;;;;4.25;2.63;;;;;;;18.04;75.11;100137.69;4148966;28;20038;-61
2023/08/04 06:41:26;;;;;;;5.88;3.00;;;;;;;18.04;74.45;100140.31;4148149;28;20050;-61
2023/08/04 06:43:29;;;;;;;4.20;2.35;;;;;;;17.96;75.37;100142.25;4149575;28;20056;-61
2023/08/04 06:45:32;;;;;;;4.30;2.72;;;;;;;17.99;74.66;100142.19;4153071;28;20074;-61
2023/08/04 06:47:35;;;;;;;4.32;2.50;;;;;;;17.94;74.46;100152.78;4149692;28;20038;-61
2023/08/04 06:49:38;;;;;;;6.78;3.00;;;;;;;17.85;74.89;100146.84;4147323;28;20041;-61
2023/08/04 06:51:42;;;;;;;5.45;3.20;;;;;;;17.85;74.75;100149.47;4152508;28;20095;-61
2023/08/04 06:53:45;;;;;;;7.88;3.28;;;;;;;17.75;75.03;100162.78;4158105;28;20042;-61
2023/08/04 06:55:48;;;;;;;5.57;2.70;;;;;;;17.63;75.01;100160.41;4163241;28;20045;-61
2023/08/04 06:57:51;;;;;;;5.00;3.70;;;;;;;17.58;75.58;100159.63;4162961;28;20550;-60
2023/08/04 06:59:54;;;;;;;6.10;3.25;;;;;;;17.53;76.16;100154.47;4161963;28;20037;-61
2023/08/04 07:01:56;;;;;;;3.55;2.42;;;;;;;17.62;75.60;100161.28;4148673;28;20072;-61
2023/08/04 07:03:59;;;;;;;6.47;3.40;;;;;;;17.52;76.17;100157.13;4155850;28;20458;-61
2023/08/04 07:06:02;;;;;;;7.13;2.85;;;;;;;17.42;76.72;100156.41;4147527;28;20037;-61
2023/08/04 07:08:06;;;;;;;4.75;2.88;;;;;;;17.48;76.91;100163.31;4161263;28;20042;-61
2023/08/04 07:10:10;;;;;;;5.85;3.53;;;;;;;17.49;76.60;100157.19;4152363;28;20129;-61
2023/08/04 07:12:13;;;;;;;6.57;3.33;;;;;;;17.38;76.68;100155.63;4158328;28;20047;-61
2023/08/04 07:14:16;;;;;;;5.60;3.60;;;;;;;17.30;77.14;100164.53;4159368;28;20056;-62
2023/08/04 07:16:19;;;;;;;6.65;3.65;;;;;;;17.33;77.16;100167.97;4155059;28;20164;-61
2023/08/04 07:18:21;;;;;;;5.47;4.30;;;;;;;17.34;76.49;100161.81;4152591;28;20556;-61
2023/08/04 07:20:24;;;;;;;5.90;3.95;;;;;;;17.28;76.44;100169.81;4146989;28;20064;-61
2023/08/04 07:22:27;;;;;;;9.00;4.28;;;;;;;17.26;76.13;100172.47;4148016;28;20037;-61
2023/08/04 07:24:32;;;;;;;5.72;4.07;;;;;;;17.28;76.15;100175.09;4148087;28;20049;-61
2023/08/04 07:26:34;;;;;;;6.78;4.50;;;;;;;17.25;76.78;100178.63;4147746;28;20511;-61
2023/08/04 07:28:38;;;;;;;7.10;4.60;;;;;;;17.12;77.04;100179.75;4148160;28;20065;-61
2023/08/04 07:30:41;;;;;;;7.25;4.40;;;;;;;17.08;77.51;100178.94;4146876;28;20081;-61
2023/08/04 07:32:44;;;;;;;10.32;4.60;;;;;;;17.22;77.83;100175.19;4156647;28;20144;-61
2023/08/04 07:34:47;;;;;;;8.82;4.90;;;;;;;17.23;77.82;100182.16;4148063;28;20057;-61
2023/08/04 07:36:50;;;;;;;6.95;4.72;;;;;;;17.41;76.92;100181.00;4130051;28;20112;-61
2023/08/04 07:38:53;;;;;;;7.40;4.97;;;;;;;17.30;77.08;100189.03;4163120;28;20046;-61
2023/08/04 07:40:58;;;;;;;8.18;5.28;;;;;;;17.28;76.97;100182.97;4146712;28;20049;-61
2023/08/04 07:43:05;;;;;;;9.10;5.47;;;;;;;17.30;76.78;100183.78;4147963;28;20050;-61
2023/08/04 07:45:09;;;;;;;6.65;4.93;;;;;;;17.21;77.59;100189.22;4154916;28;20088;-61
2023/08/04 07:47:11;;;;;;;6.20;4.68;;;;;;;17.30;77.45;100183.78;4163844;28;20049;-61
2023/08/04 07:49:14;;;;;;;5.93;4.53;;;;;;;17.37;76.18;100188.03;4160544;28;20046;-61
2023/08/04 07:51:17;;;;;;;6.85;5.03;;;;;;;17.39;75.74;100186.28;4156255;28;20125;-60
2023/08/04 07:53:20;;;;;;;9.20;5.45;;;;;;;17.49;75.41;100188.72;4147841;28;20057;-61
2023/08/04 07:55:23;;;;;;;7.07;3.67;;;;;;;17.41;76.04;100194.97;4148437;28;20104;-60
2023/08/04 07:57:28;;;;;;;9.70;5.35;;;;;;;17.48;76.34;100189.59;4169428;28;20708;-61
2023/08/04 07:59:30;;;;;;;8.23;4.47;;;;;;;17.48;76.39;100192.22;4178814;28;20074;-61
2023/08/04 08:01:33;;;;;;;7.93;4.97;;;;;;;17.54;76.56;100194.78;4162512;28;20045;-61
2023/08/04 08:03:37;;;;;;;6.55;3.70;;;;;;;17.70;74.71;100192.72;4163916;28;20039;-61
2023/08/04 08:05:40;;;;;;;6.35;2.72;;;;;;;17.65;73.57;100198.03;4161239;28;20033;-61
2023/08/04 08:07:42;;;;;;;7.30;2.95;;;;;;;17.54;73.76;100194.78;4163640;28;20043;-62
2023/08/04 08:09:48;;;;;;;4.68;2.80;;;;;;;17.44;74.62;100199.31;4163805;28;20107;-61
2023/08/04 08:11:51;;;;;;;7.78;3.33;;;;;;;17.53;74.00;100191.25;4158227;28;20133;-62
2023/08/04 08:13:55;;;;;;;7.10;3.28;;;;;;;17.59;74.35;100198.16;4155258;28;20464;-61
2023/08/04 08:15:58;;;;;;;6.82;3.35;;;;;;;17.58;74.89;100199.06;4155544;28;20048;-61
2023/08/04 08:18:01;;;;;;;8.65;3.50;;;;;;;17.66;74.68;100202.41;4147636;28;20115;-62
2023/08/04 08:20:05;;;;;;;9.10;3.25;;;;;;;17.62;74.48;100195.47;4159541;28;20049;-61
2023/08/04 08:22:09;;;;;;;7.28;3.83;;;;;;;17.75;74.99;100204.84;4163597;28;20541;-61
2023/08/04 08:24:12;;;;;;;8.40;3.83;;;;;;;17.89;74.14;100207.22;4162838;28;20043;-61
2023/08/04 08:26:14;;;;;;;9.82;4.57;;;;;;;17.94;73.69;100209.78;4163318;28;20041;-62
2023/08/04 08:28:17;;;;;;;13.50;4.18;;;;;;;17.95;73.59;100212.38;4163365;28;20041;-61
2023/08/04 08:30:21;;;;;;;9.38;4.47;;;;;;;18.14;72.45;100201.50;4162191;28;20045;-61
2023/08/04 08:32:25;;;;;;;10.95;4.45;;;;;;;18.10;72.62;100208.56;4162301;28;20041;-61
2023/08/04 08:34:27;;;;;;;6.78;4.30;;;;;;;18.22;72.47;100211.84;4161363;28;20041;-61
2023/08/04 08:36:30;;;;;;;7.95;4.40;;;;;;;18.25;71.78;100207.41;4159691;28;20372;-61
2023/08/04 08:38:34;;;;;;;7.65;4.47;;;;;;;18.05;73.27;100218.34;4149926;28;20484;-61
2023/08/04 08:40:37;;;;;;;7.32;4.35;;;;;;;18.09;73.72;100224.38;4151242;28;20041;-62
2023/08/04 08:42:39;;;;;;;8.35;4.40;;;;;;;18.14;73.17;100223.38;4148046;28;20477;-61
2023/08/04 08:44:42;;;;;;;12.27;4.88;;;;;;;18.01;73.51;100229.81;4156459;28;20144;-61
2023/08/04 08:46:46;;;;;;;6.97;3.97;;;;;;;18.00;74.27;100233.31;4145226;28;20045;-61
2023/08/04 08:48:54;;;;;;;8.85;5.28;;;;;;;18.02;74.24;100239.44;4146575;28;20043;-61
2023/08/04 08:51:03;;;;;;;9.63;4.50;;;;;;;17.92;74.78;100230.00;4160987;28;20060;-61
2023/08/04 08:53:10;;;;;;;8.27;4.93;;;;;;;17.93;75.31;100239.59;4156188;28;20041;-61
2023/08/04 08:55:13;;;;;;;6.78;4.38;;;;;;;18.02;74.40;100235.94;4148013;28;20115;-61
2023/08/04 08:57:16;;;;;;;8.75;5.18;;;;;;;17.88;74.96;100238.81;4160373;28;20049;-61
2023/08/04 08:59:20;;;;;;;5.60;3.90;;;;;;;17.91;75.28;100238.78;4172228;28;20037;-61
2023/08/04 09:01:23;;;;;;;8.30;4.35;;;;;;;17.93;74.77;100242.22;4161015;28;20093;-61
2023/08/04 09:03:28;;;;;;;7.15;4.78;;;;;;;17.84;75.62;100243.25;4154849;28;20040;-61
2023/08/04 09:05:31;;;;;;;5.32;4.18;;;;;;;17.88;74.80;100238.81;4151557;28;20034;-61
2023/08/04 09:07:42;;;;;;;7.90;4.30;;;;;;;17.98;74.60;100245.66;4162806;28;20041;-61
2023/08/04 09:09:45;;;;;;;4.70;3.53;;;;;;;17.96;75.61;100247.47;4162232;28;20045;-62
2023/08/04 09:11:49;;;;;;;6.47;3.60;;;;;;;18.06;74.63;100254.28;4147700;28;20038;-61
2023/08/04 09:13:53;;;;;;;6.25;4.03;;;;;;;18.00;75.64;100249.09;4154903;28;20065;-61
2023/08/04 09:15:59;;;;;;;6.88;4.15;;;;;;;18.05;74.76;100252.53;4158306;28;20034;-61
2023/08/04 09:18:06;;;;;;;5.57;3.85;;;;;;;18.05;74.84;100246.41;4157523;28;20037;-62
2023/08/04 09:20:26;;;;;;;5.65;3.90;;;;;;;18.02;75.00;100251.72;4155677;28;20041;-62
2023/08/04 09:22:31;;;;;;;7.47;3.92;;;;;;;18.10;75.92;100253.28;4150216;28;20492;-62
2023/08/04 09:24:34;;;;;;;4.43;3.13;;;;;;;18.16;75.06;100249.66;4153588;28;20041;-62
2023/08/04 09:26:42;;;;;;;5.90;3.88;;;;;;;18.18;75.43;100260.16;4157486;28;20129;-62
2023/08/04 09:28:44;;;;;;;6.90;4.07;;;;;;;18.17;75.53;100259.31;4150232;28;20045;-61
2023/08/04 09:31:01;;;;;;;6.95;4.00;;;;;;;18.17;75.02;100250.56;4154810;28;20064;-61
2023/08/04 09:33:04;;;;;;;6.50;4.05;;;;;;;18.45;73.29;100261.34;4164784;28;20037;-62
2023/08/04 09:35:08;;;;;;;6.63;4.25;;;;;;;18.27;74.43;100252.94;4164572;28;20049;-62
2023/08/04 09:37:16;;;;;;;5.85;4.13;;;;;;;18.21;75.04;100258.34;4161414;28;20128;-62